Time;durP1;ratioP1;P1;durP2;ratioP2;P2;SDS_P1;SDS_P2;PMS_P1;PMS_P2;Temp;Humidity;BMP_temperature;BMP_pressure;BME280_temperature;BME280_humidity;BME280_pressure;Samples;Min_cycle;Max_cycle;Signal;HPM_P1;HPM_P2
2023/08/31 00:01:43;;;;;;;10.05;6.45;;;;;;;12.38;100.00;96177.06;5063200;28;20048;-68
2023/08/31 00:04:14;;;;;;;12.40;6.03;;;;;;;12.41;100.00;96188.03;5059168;28;20040;-68
2023/08/31 00:06:40;;;;;;;9.43;6.32;;;;;;;12.45;100.00;96179.81;5065405;28;20071;-68
2023/08/31 00:09:09;;;;;;;7.97;6.07;;;;;;;12.47;100.00;96187.66;5060193;28;20094;-68
2023/08/31 00:11:35;;;;;;;9.15;5.68;;;;;;;12.53;100.00;96191.56;5078538;28;20047;-70
2023/08/31 00:14:01;;;;;;;8.60;6.35;;;;;;;12.52;100.00;96190.03;5050256;28;20040;-69
2023/08/31 00:16:27;;;;;;;9.65;6.18;;;;;;;12.56;100.00;96196.31;5073714;28;20047;-67
2023/08/31 00:18:56;;;;;;;8.55;5.75;;;;;;;12.68;100.00;96184.91;5074603;28;20089;-67
2023/08/31 00:21:22;;;;;;;8.05;5.47;;;;;;;12.71;100.00;96188.84;5080177;28;20480;-70
2023/08/31 00:23:48;;;;;;;8.68;5.35;;;;;;;12.79;100.00;96180.19;5084905;28;20040;-70
2023/08/31 00:26:14;;;;;;;6.80;4.70;;;;;;;12.92;100.00;96177.06;5080032;28;20786;-69
2023/08/31 00:28:42;;;;;;;6.45;4.28;;;;;;;12.97;100.00;96184.91;5064425;28;20040;-70
2023/08/31 00:31:08;;;;;;;5.40;4.22;;;;;;;13.17;100.00;96183.28;5039225;28;20045;-70
2023/08/31 00:33:34;;;;;;;5.80;4.00;;;;;;;13.34;100.00;96189.16;5043663;28;20145;-70
2023/08/31 00:36:03;;;;;;;5.10;3.85;;;;;;;13.53;100.00;96188.72;5026913;28;20521;-69
2023/08/31 00:38:29;;;;;;;4.95;3.60;;;;;;;13.66;100.00;96186.31;5041038;28;20489;-67
2023/08/31 00:40:55;;;;;;;5.80;3.30;;;;;;;13.79;100.00;96192.16;5044266;28;20556;-67
2023/08/31 00:43:20;;;;;;;5.72;3.30;;;;;;;13.86;100.00;96181.09;5037601;28;20120;-69
2023/08/31 00:45:48;;;;;;;4.57;3.20;;;;;;;14.00;100.00;96190.50;5025998;28;20049;-70
2023/08/31 00:48:17;;;;;;;5.85;3.10;;;;;;;14.04;100.00;96192.03;5040058;28;20052;-71
2023/08/31 00:50:46;;;;;;;5.55;3.03;;;;;;;14.09;100.00;96197.13;5043340;28;20033;-68
2023/08/31 00:53:13;;;;;;;5.20;3.60;;;;;;;14.02;100.00;96199.13;5039609;28;20041;-69
2023/08/31 00:55:39;;;;;;;4.07;2.85;;;;;;;14.09;100.00;96201.84;5083134;28;20044;-70
2023/08/31 00:58:06;;;;;;;3.70;3.03;;;;;;;14.11;100.00;96200.25;5061724;28;20048;-67
2023/08/31 01:01:16;;;;;;;7.82;3.08;;;;;;;14.36;100.00;96210.34;5068265;28;20040;-69
2023/08/31 01:04:14;;;;;;;10.60;3.25;;;;;;;14.45;100.00;96207.91;5062840;28;20040;-70
2023/08/31 01:07:13;;;;;;;5.38;3.22;;;;;;;14.48;100.00;96206.34;5063074;28;20108;-69
2023/08/31 01:10:24;;;;;;;5.30;3.00;;;;;;;14.61;100.00;96218.47;5063633;28;20098;-69
2023/08/31 01:12:58;;;;;;;7.57;3.83;;;;;;;14.43;100.00;96223.28;5022364;28;20043;-69
2023/08/31 01:15:25;;;;;;;7.32;3.63;;;;;;;14.36;100.00;96221.38;5071261;28;20609;-69
2023/08/31 01:17:54;;;;;;;5.20;3.50;;;;;;;14.29;100.00;96221.41;5059282;28;20090;-70
2023/08/31 01:20:38;;;;;;;4.95;3.65;;;;;;;14.21;100.00;96220.66;5039658;28;20037;-69
2023/08/31 01:23:19;;;;;;;5.95;3.80;;;;;;;14.10;100.00;96219.94;5040743;28;20045;-67
2023/08/31 01:25:48;;;;;;;6.60;4.43;;;;;;;14.07;100.00;96226.25;5068088;28;20053;-68
2023/08/31 01:28:13;;;;;;;5.43;4.22;;;;;;;14.01;100.00;96227.84;5039323;28;20535;-68
2023/08/31 01:30:39;;;;;;;5.90;4.45;;;;;;;14.00;100.00;96229.81;5049970;28;20045;-69
2023/08/31 01:33:04;;;;;;;4.60;4.10;;;;;;;14.05;100.00;96215.63;5056761;28;20045;-65
2023/08/31 01:35:46;;;;;;;8.23;3.97;;;;;;;14.05;100.00;96223.13;5059941;28;20259;-68
2023/08/31 01:38:18;;;;;;;5.60;3.90;;;;;;;14.12;100.00;96226.63;5038513;28;20577;-70
2023/08/31 01:40:56;;;;;;;8.23;4.30;;;;;;;14.05;100.00;96220.38;5025638;28;20445;-71
2023/08/31 01:43:22;;;;;;;8.30;5.18;;;;;;;13.94;100.00;96225.94;5038688;28;20041;-70
2023/08/31 01:45:48;;;;;;;5.20;4.18;;;;;;;13.79;100.00;96230.69;5042476;28;20527;-69
2023/08/31 01:48:14;;;;;;;5.63;4.00;;;;;;;13.71;100.00;96232.69;5021186;28;20135;-70
2023/08/31 01:50:40;;;;;;;7.80;4.20;;;;;;;13.61;100.00;96236.25;5043229;28;20067;-70
2023/08/31 01:53:06;;;;;;;6.13;4.55;;;;;;;13.50;100.00;96235.50;5020598;28;20033;-70
2023/08/31 01:55:32;;;;;;;6.22;4.32;;;;;;;13.45;100.00;96235.91;5058126;28;20043;-69
2023/08/31 01:57:58;;;;;;;6.07;4.40;;;;;;;13.46;100.00;96240.22;5084556;28;20036;-71
2023/08/31 02:00:25;;;;;;;5.53;3.95;;;;;;;13.53;100.00;96243.75;5054311;28;20553;-70
2023/08/31 02:02:50;;;;;;;7.40;4.53;;;;;;;13.56;100.00;96236.69;5078059;28;20075;-70
2023/08/31 02:05:16;;;;;;;6.00;4.47;;;;;;;13.65;100.00;96236.22;5053728;28;20045;-71
2023/08/31 02:07:41;;;;;;;7.03;4.30;;;;;;;13.63;100.00;96244.09;5052707;28;20631;-69
2023/08/31 02:10:07;;;;;;;8.05;3.95;;;;;;;13.64;100.00;96245.69;5060023;28;20110;-69
2023/08/31 02:12:33;;;;;;;7.78;4.28;;;;;;;13.63;100.00;96242.16;5062472;28;20045;-70
2023/08/31 02:14:58;;;;;;;5.90;4.00;;;;;;;13.64;100.00;96242.94;5063108;28;20036;-70
2023/08/31 02:17:25;;;;;;;5.85;4.13;;;;;;;13.65;100.00;96250.00;5059030;28;20329;-69
2023/08/31 02:19:50;;;;;;;7.50;4.32;;;;;;;13.67;100.00;96242.94;5066900;28;20048;-69
2023/08/31 02:22:16;;;;;;;6.20;3.95;;;;;;;13.64;100.00;96251.19;5058396;28;20365;-69
2023/08/31 02:24:41;;;;;;;10.38;4.63;;;;;;;13.50;100.00;96246.50;5063056;28;20079;-70
2023/08/31 02:27:07;;;;;;;7.28;4.40;;;;;;;13.36;100.00;96250.88;5057562;28;20044;-70
2023/08/31 02:29:32;;;;;;;7.55;4.97;;;;;;;13.28;100.00;96251.25;5063260;28;20051;-69
2023/08/31 02:31:58;;;;;;;8.40;4.82;;;;;;;13.22;100.00;96252.81;5072463;28;20100;-70
2023/08/31 02:34:23;;;;;;;6.22;5.38;;;;;;;13.15;100.00;96254.38;5073852;28;20618;-69
2023/08/31 02:36:48;;;;;;;7.93;4.97;;;;;;;13.13;100.00;96253.22;5044708;28;20041;-69
2023/08/31 02:39:15;;;;;;;6.85;5.13;;;;;;;13.12;100.00;96262.63;5056493;28;20502;-70
2023/08/31 02:41:41;;;;;;;5.63;4.88;;;;;;;13.10;100.00;96260.28;5063701;28;20090;-69
2023/08/31 02:44:06;;;;;;;6.80;5.53;;;;;;;13.11;100.00;96267.38;5059324;28;20036;-69
2023/08/31 02:46:31;;;;;;;7.07;5.03;;;;;;;13.11;100.00;96255.59;5044413;28;20051;-70
2023/08/31 02:48:57;;;;;;;7.55;4.60;;;;;;;13.17;100.00;96254.00;5044360;28;20070;-70
2023/08/31 02:51:22;;;;;;;5.10;4.28;;;;;;;13.22;100.00;96255.56;5062999;28;20571;-69
2023/08/31 02:53:48;;;;;;;12.98;5.88;;;;;;;12.94;100.00;96244.19;5066451;28;20051;-69
2023/08/31 02:56:14;;;;;;;8.38;5.50;;;;;;;12.79;100.00;96246.16;5058974;28;20045;-69
2023/08/31 02:58:39;;;;;;;11.80;6.18;;;;;;;12.65;100.00;96253.59;5060188;28;20164;-70
2023/08/31 03:01:09;;;;;;;10.68;6.90;;;;;;;12.58;100.00;96257.91;5038145;28;20118;-67
2023/08/31 03:03:35;;;;;;;8.32;5.22;;;;;;;12.60;100.00;96265.75;5022623;28;20045;-69
2023/08/31 03:06:00;;;;;;;7.10;5.55;;;;;;;12.75;100.00;96252.84;5041585;28;20029;-69
2023/08/31 03:08:25;;;;;;;7.15;5.10;;;;;;;12.87;100.00;96259.91;5037468;28;20051;-69
2023/08/31 03:10:51;;;;;;;10.63;5.85;;;;;;;12.88;100.00;96262.25;5041219;28;20076;-69
2023/08/31 03:13:16;;;;;;;8.65;5.53;;;;;;;12.94;100.00;96259.91;5043360;28;20063;-70
2023/08/31 03:15:42;;;;;;;6.65;5.43;;;;;;;13.11;100.00;96263.84;5069400;28;20040;-70
2023/08/31 03:18:07;;;;;;;9.70;5.40;;;;;;;13.19;100.00;96262.63;5057580;28;20049;-70
2023/08/31 03:20:32;;;;;;;7.53;5.18;;;;;;;13.30;100.00;96259.88;5061869;28;20040;-68
2023/08/31 03:22:58;;;;;;;8.10;5.60;;;;;;;13.33;100.00;96264.63;5061344;28;20040;-68
2023/08/31 03:25:24;;;;;;;8.93;4.78;;;;;;;13.39;100.00;96266.56;5056790;28;20392;-69
2023/08/31 03:27:49;;;;;;;5.85;4.55;;;;;;;13.44;100.00;96270.09;5062506;28;20564;-70
2023/08/31 03:30:15;;;;;;;7.53;4.38;;;;;;;13.41;100.00;96268.13;5056793;28;20043;-70
2023/08/31 03:32:40;;;;;;;5.60;4.25;;;;;;;13.46;100.00;96271.28;5062988;28;20052;-70
2023/08/31 03:35:07;;;;;;;10.18;4.88;;;;;;;13.55;100.00;96263.38;5040024;28;20074;-70
2023/08/31 03:37:33;;;;;;;6.75;4.38;;;;;;;13.61;100.00;96268.50;5063478;28;20057;-72
2023/08/31 03:39:59;;;;;;;6.97;4.80;;;;;;;13.62;100.00;96275.56;5069336;28;20048;-70
2023/08/31 03:42:24;;;;;;;8.32;4.32;;;;;;;13.64;100.00;96271.22;5040729;28;20040;-70
2023/08/31 03:44:50;;;;;;;6.72;4.50;;;;;;;13.72;100.00;96270.03;5063571;28;20055;-71
2023/08/31 03:47:15;;;;;;;7.68;4.45;;;;;;;13.70;100.00;96275.16;5039510;28;20048;-69
2023/08/31 03:49:40;;;;;;;8.50;4.55;;;;;;;13.65;100.00;96272.00;5046579;28;20045;-71
2023/08/31 03:52:06;;;;;;;5.50;4.18;;;;;;;13.62;100.00;96273.59;5057185;28;20036;-69
2023/08/31 03:54:31;;;;;;;8.30;4.60;;;;;;;13.65;100.00;96283.00;5062867;28;20040;-69
2023/08/31 03:56:57;;;;;;;8.40;5.03;;;;;;;13.57;100.00;96271.25;5080834;28;20139;-69
2023/08/31 03:59:22;;;;;;;8.50;4.72;;;;;;;13.53;100.00;96279.50;5069643;28;20272;-68
2023/08/31 04:01:48;;;;;;;7.10;4.63;;;;;;;13.54;100.00;96270.09;5080513;28;20186;-70
2023/08/31 04:04:13;;;;;;;7.20;4.00;;;;;;;13.51;100.00;96265.38;5065222;28;20052;-70
2023/08/31 04:06:38;;;;;;;9.18;4.68;;;;;;;13.49;100.00;96269.72;5066129;28;20045;-71
2023/08/31 04:09:04;;;;;;;8.60;4.30;;;;;;;13.50;100.00;96280.28;5060911;28;20047;-70
2023/08/31 04:11:29;;;;;;;7.90;4.82;;;;;;;13.54;100.00;96291.28;5063510;28;20048;-69
2023/08/31 04:13:55;;;;;;;7.00;4.85;;;;;;;13.60;100.00;96297.97;5054712;28;20048;-69
2023/08/31 04:16:21;;;;;;;7.03;4.50;;;;;;;13.62;100.00;96303.88;5075835;28;20080;-68
2023/08/31 04:18:51;;;;;;;5.30;4.00;;;;;;;13.69;100.00;96303.84;5084093;28;20178;-69
2023/08/31 04:21:16;;;;;;;;;;;;;;;13.64;100.00;96317.22;5080165;28;20032;-71
2023/08/31 04:23:42;;;;;;;9.02;4.30;;;;;;;13.65;100.00;96307.78;5059662;28;20037;-71
2023/08/31 04:26:14;;;;;;;7.68;5.15;;;;;;;13.57;100.00;96315.28;5061053;28;20040;-70
2023/08/31 04:28:41;;;;;;;9.55;4.90;;;;;;;13.53;100.00;96323.53;5052926;28;20040;-70
2023/08/31 04:31:07;;;;;;;9.10;5.28;;;;;;;13.50;100.00;96327.06;5039953;28;20044;-70
2023/08/31 04:33:37;;;;;;;7.07;5.20;;;;;;;13.41;100.00;96317.66;5043666;28;20049;-69
2023/08/31 04:36:04;;;;;;;5.70;4.55;;;;;;;13.37;100.00;96312.16;5044164;28;20059;-70
2023/08/31 04:38:34;;;;;;;9.02;4.25;;;;;;;13.33;100.00;96311.38;5025791;28;20037;-70
2023/08/31 04:41:00;;;;;;;6.45;4.65;;;;;;;13.22;100.00;96316.84;5048654;28;20037;-71
2023/08/31 04:43:25;;;;;;;5.22;4.25;;;;;;;13.20;100.00;96316.47;5074843;28;20041;-70
2023/08/31 04:45:54;;;;;;;9.15;4.63;;;;;;;13.18;100.00;96324.28;5080517;28;20054;-70
2023/08/31 04:48:19;;;;;;;6.22;4.18;;;;;;;13.19;100.00;96321.16;5082335;28;20045;-68
2023/08/31 04:50:45;;;;;;;5.47;4.30;;;;;;;13.21;100.00;96323.53;5076496;28;20045;-68
2023/08/31 04:53:11;;;;;;;5.43;4.05;;;;;;;13.26;100.00;96334.13;5061453;28;20037;-70
2023/08/31 04:55:37;;;;;;;7.85;3.75;;;;;;;13.27;100.00;96334.91;5081092;28;20526;-70
2023/08/31 04:58:03;;;;;;;8.50;4.20;;;;;;;13.23;100.00;96347.88;5081693;28;20044;-68
2023/08/31 05:00:29;;;;;;;6.22;4.10;;;;;;;13.20;100.00;96354.97;5032428;28;20131;-68
2023/08/31 05:02:55;;;;;;;4.95;3.72;;;;;;;13.23;100.00;96347.88;5065802;28;20059;-69
2023/08/31 05:05:21;;;;;;;7.20;4.70;;;;;;;13.21;100.00;96342.78;5064252;28;20041;-69
2023/08/31 05:07:46;;;;;;;7.47;4.35;;;;;;;13.17;100.00;96347.50;5049669;28;20136;-68
2023/08/31 05:10:12;;;;;;;13.35;5.07;;;;;;;13.14;100.00;96359.25;5045952;28;20067;-68
2023/08/31 05:12:37;;;;;;;5.28;4.07;;;;;;;13.09;100.00;96367.91;5064312;28;20050;-70
2023/08/31 05:15:03;;;;;;;6.57;4.35;;;;;;;13.01;100.00;96362.38;5074627;28;20064;-66
2023/08/31 05:17:30;;;;;;;6.75;4.22;;;;;;;13.01;100.00;96365.13;5069195;28;20039;-68
2023/08/31 05:19:55;;;;;;;10.70;4.75;;;;;;;13.00;100.00;96354.56;5088033;28;20032;-71
2023/08/31 05:22:21;;;;;;;11.98;5.13;;;;;;;12.84;100.00;96348.63;5078657;28;20522;-69
2023/08/31 05:24:46;;;;;;;8.85;4.93;;;;;;;12.80;100.00;96352.16;5084991;28;20070;-68
2023/08/31 05:27:12;;;;;;;8.77;6.28;;;;;;;12.59;100.00;96352.13;5074673;28;20440;-69
2023/08/31 05:29:37;;;;;;;8.73;5.43;;;;;;;12.61;100.00;96358.78;5062699;28;20051;-69
2023/08/31 05:32:03;;;;;;;34.72;17.85;;;;;;;12.67;100.00;96363.91;5061171;28;20041;-69
2023/08/31 05:34:28;;;;;;;9.20;5.85;;;;;;;12.91;100.00;96363.19;5061373;28;20500;-69
2023/08/31 05:36:54;;;;;;;5.22;4.05;;;;;;;12.82;100.00;96366.31;5063653;28;20060;-70
2023/08/31 05:39:19;;;;;;;10.35;5.53;;;;;;;13.15;100.00;96367.13;5058758;28;20090;-69
2023/08/31 05:41:44;;;;;;;17.83;5.60;;;;;;;13.29;100.00;96365.56;5063773;28;20051;-69
2023/08/31 05:44:10;;;;;;;10.80;5.40;;;;;;;13.70;100.00;96362.41;5040604;28;20044;-68
2023/08/31 05:46:36;;;;;;;11.60;5.15;;;;;;;13.85;100.00;96363.97;5042562;28;20041;-70
2023/08/31 05:49:02;;;;;;;5.22;2.88;;;;;;;13.87;100.00;96358.09;5062281;28;20185;-68
2023/08/31 05:51:27;;;;;;;6.32;2.80;;;;;;;14.08;100.00;96382.81;5061064;28;20132;-69
2023/08/31 05:53:53;;;;;;;6.20;3.70;;;;;;;14.23;100.00;96369.78;5063448;28;20048;-70
2023/08/31 05:56:19;;;;;;;8.65;3.35;;;;;;;14.34;100.00;96373.28;5065786;28;20032;-70
2023/08/31 05:58:45;;;;;;;4.93;2.90;;;;;;;14.57;100.00;96385.00;5083978;28;20071;-70
2023/08/31 06:01:10;;;;;;;4.38;2.50;;;;;;;14.61;100.00;96388.56;5040376;28;20075;-69
2023/08/31 06:03:36;;;;;;;5.35;2.42;;;;;;;14.51;100.00;96395.66;5063385;28;20037;-69
2023/08/31 06:06:03;;;;;;;4.50;2.50;;;;;;;14.63;100.00;96399.97;5062690;28;20051;-68
2023/08/31 06:08:30;;;;;;;4.53;2.30;;;;;;;14.35;100.00;96398.88;5061516;28;20131;-69
2023/08/31 06:10:56;;;;;;;4.22;2.30;;;;;;;14.23;100.00;96408.34;5065708;28;20041;-70
2023/08/31 06:13:21;;;;;;;5.85;2.50;;;;;;;14.07;100.00;96403.25;5064452;28;20028;-69
2023/08/31 06:15:46;;;;;;;6.00;2.95;;;;;;;14.00;100.00;96400.53;5065061;28;20127;-71
2023/08/31 06:18:12;;;;;;;5.72;2.00;;;;;;;14.00;100.00;96402.50;5058306;28;20396;-70
2023/08/31 06:20:37;;;;;;;4.72;2.30;;;;;;;13.98;100.00;96404.88;5063402;28;20048;-70
2023/08/31 06:23:03;;;;;;;4.10;2.20;;;;;;;14.03;100.00;96398.97;5043799;28;20040;-67
2023/08/31 06:25:29;;;;;;;8.93;2.33;;;;;;;13.93;100.00;96395.81;5054059;28;20048;-68
2023/08/31 06:27:54;;;;;;;4.75;2.20;;;;;;;14.10;100.00;96401.69;5084534;28;20054;-68
2023/08/31 06:30:20;;;;;;;7.60;1.95;;;;;;;14.28;100.00;96407.16;5071983;28;20362;-69
2023/08/31 06:32:47;;;;;;;4.40;1.90;;;;;;;14.45;100.00;96411.03;5053513;28;20036;-71
2023/08/31 06:35:15;;;;;;;11.05;4.50;;;;;;;14.58;100.00;96411.41;5077849;28;20462;-69
2023/08/31 06:37:41;;;;;;;4.38;2.00;;;;;;;14.60;100.00;96420.84;5062475;28;20039;-70
2023/08/31 06:40:09;;;;;;;6.35;1.98;;;;;;;14.42;100.00;96423.66;5058023;28;20052;-68
2023/08/31 06:42:39;;;;;;;6.07;2.75;;;;;;;14.68;100.00;96430.66;5056329;28;20455;-70
2023/08/31 06:45:05;;;;;;;5.87;2.57;;;;;;;14.90;100.00;96428.59;5040656;28;20068;-68
2023/08/31 06:47:31;;;;;;;6.35;2.88;;;;;;;15.12;100.00;96424.94;5044520;28;20678;-68
2023/08/31 06:49:57;;;;;;;4.45;1.77;;;;;;;15.30;100.00;96433.88;5062566;28;20185;-69
2023/08/31 06:52:23;;;;;;;4.63;1.80;;;;;;;15.28;100.00;96436.25;5057746;28;20518;-70
2023/08/31 06:54:49;;;;;;;5.88;1.67;;;;;;;15.14;100.00;96436.34;5069325;28;20040;-70
2023/08/31 06:57:14;;;;;;;3.75;1.73;;;;;;;15.28;100.00;96442.53;5066567;28;20133;-70
2023/08/31 06:59:40;;;;;;;5.50;2.00;;;;;;;15.64;100.00;96433.25;5050984;28;20059;-68
2023/08/31 07:02:05;;;;;;;5.13;2.17;;;;;;;16.59;100.00;96443.81;5053648;28;20062;-67
2023/08/31 07:04:31;;;;;;;6.82;1.73;;;;;;;16.93;100.00;96451.34;5086753;28;20039;-70
2023/08/31 07:06:56;;;;;;;6.20;1.90;;;;;;;17.38;100.00;96450.34;5068751;28;20068;-70
2023/08/31 07:09:21;;;;;;;3.97;1.40;;;;;;;17.56;100.00;96456.38;5059916;28;20284;-70
2023/08/31 07:11:47;;;;;;;6.32;1.70;;;;;;;18.12;100.00;96463.44;5043759;28;20098;-71
2023/08/31 07:14:12;;;;;;;4.20;1.65;;;;;;;18.93;100.00;96462.34;5068976;28;20036;-70
2023/08/31 07:16:38;;;;;;;4.90;2.10;;;;;;;18.88;100.00;96471.94;5045498;28;20044;-71
2023/08/31 07:19:03;;;;;;;5.15;1.80;;;;;;;18.76;100.00;96467.00;5059108;28;20049;-68
2023/08/31 07:21:29;;;;;;;4.90;1.50;;;;;;;19.47;100.00;96472.31;5061666;28;20052;-72
2023/08/31 07:23:54;;;;;;;4.88;1.70;;;;;;;19.60;100.00;96481.53;5061428;28;20044;-70
2023/08/31 07:26:20;;;;;;;5.05;2.00;;;;;;;19.02;100.00;96481.22;5039245;28;20715;-69
2023/08/31 07:28:46;;;;;;;4.55;1.63;;;;;;;17.73;100.00;96478.69;5061004;28;20044;-70
2023/08/31 07:31:12;;;;;;;6.93;1.70;;;;;;;17.55;100.00;96465.88;5056918;28;20033;-71
2023/08/31 07:33:38;;;;;;;6.07;1.70;;;;;;;17.50;100.00;96460.03;5062074;28;20074;-70
2023/08/31 07:36:05;;;;;;;7.65;2.17;;;;;;;18.11;100.00;96470.19;5041917;28;20044;-69
2023/08/31 07:38:31;;;;;;;4.05;1.50;;;;;;;19.68;99.67;96469.06;5047929;28;20078;-71
2023/08/31 07:40:56;;;;;;;6.53;2.03;;;;;;;21.26;83.82;96492.00;5074991;28;20047;-70
2023/08/31 07:43:22;;;;;;;5.05;1.73;;;;;;;20.63;88.85;96487.78;5061051;28;20316;-70
2023/08/31 07:45:48;;;;;;;4.57;1.73;;;;;;;21.66;80.04;96491.66;5054735;28;20105;-69
2023/08/31 07:48:14;;;;;;;5.57;2.13;;;;;;;21.03;79.92;96495.06;5061335;28;20036;-71
2023/08/31 07:50:42;;;;;;;4.75;2.17;;;;;;;20.63;81.27;96507.28;5067128;28;20046;-70
2023/08/31 07:53:08;;;;;;;4.60;1.60;;;;;;;19.28;85.16;96496.94;5066735;28;20039;-69
2023/08/31 07:55:35;;;;;;;4.38;2.13;;;;;;;18.25;98.19;96505.97;5069591;28;20043;-69
2023/08/31 07:58:01;;;;;;;7.13;1.90;;;;;;;17.45;100.00;96504.81;5085423;28;20040;-69
2023/08/31 08:00:27;;;;;;;2.45;1.23;;;;;;;17.86;100.00;96507.41;5063576;28;20041;-70
2023/08/31 08:02:52;;;;;;;7.25;2.10;;;;;;;18.40;98.04;96516.81;5046696;28;20032;-70
2023/08/31 08:05:18;;;;;;;4.35;1.70;;;;;;;18.29;98.56;96508.69;5061933;28;20048;-69
2023/08/31 08:07:43;;;;;;;4.63;2.20;;;;;;;17.85;100.00;96521.66;5067123;28;20512;-70
2023/08/31 08:10:11;;;;;;;6.30;3.20;;;;;;;17.58;100.00;96519.66;5048457;28;20040;-68
2023/08/31 08:12:39;;;;;;;4.40;1.92;;;;;;;17.86;100.00;96526.81;5065185;28;20108;-69
2023/08/31 08:15:06;;;;;;;4.07;1.55;;;;;;;18.32;98.17;96524.50;5069421;28;20099;-68
2023/08/31 08:17:32;;;;;;;5.28;1.80;;;;;;;17.70;100.00;96527.41;5066105;28;20043;-69
2023/08/31 08:19:58;;;;;;;4.05;2.28;;;;;;;17.94;100.00;96538.56;5066334;28;20036;-68
2023/08/31 08:22:24;;;;;;;4.40;1.70;;;;;;;17.70;100.00;96534.91;5060849;28;20362;-70
2023/08/31 08:24:50;;;;;;;7.63;2.00;;;;;;;18.16;100.00;96533.47;5066030;28;20047;-69
2023/08/31 08:27:17;;;;;;;3.20;1.67;;;;;;;19.08;95.80;96535.78;5062926;28;20052;-73
2023/08/31 08:29:42;;;;;;;6.40;1.65;;;;;;;19.59;87.57;96546.66;5068383;28;20404;-71
2023/08/31 08:32:08;;;;;;;3.53;1.70;;;;;;;19.62;87.26;96548.53;5063418;28;20045;-70
2023/08/31 08:34:34;;;;;;;6.45;1.60;;;;;;;20.72;82.83;96553.94;5066067;28;20566;-71
2023/08/31 08:36:59;;;;;;;5.68;1.58;;;;;;;21.42;73.08;96552.44;5049429;28;20358;-69
2023/08/31 08:39:25;;;;;;;6.43;1.90;;;;;;;21.11;75.00;96558.47;5062012;28;20115;-70
2023/08/31 08:41:54;;;;;;;5.10;1.48;;;;;;;20.57;74.79;96559.09;5065830;28;20044;-71
2023/08/31 08:44:21;;;;;;;6.05;1.90;;;;;;;20.50;75.43;96556.47;5059045;28;20489;-70
2023/08/31 08:46:49;;;;;;;4.15;1.50;;;;;;;20.53;73.38;96561.19;5045983;28;20122;-69
2023/08/31 08:49:15;;;;;;;4.45;1.80;;;;;;;19.58;77.68;96566.53;5058552;28;20104;-70
2023/08/31 08:51:41;;;;;;;7.47;1.67;;;;;;;19.36;80.30;96566.19;5068293;28;20041;-69
2023/08/31 08:54:08;;;;;;;4.50;1.80;;;;;;;19.59;78.62;96566.09;5059828;28;20105;-70
2023/08/31 08:56:34;;;;;;;6.97;2.00;;;;;;;19.19;80.50;96570.88;5069927;28;20417;-70
2023/08/31 08:59:00;;;;;;;4.35;1.50;;;;;;;18.85;83.20;96560.81;5081935;28;20080;-71
2023/08/31 09:01:26;;;;;;;4.90;1.60;;;;;;;18.67;82.74;96561.09;5065453;28;20056;-71
2023/08/31 09:03:52;;;;;;;6.20;1.77;;;;;;;18.68;84.00;96568.25;5067897;28;20041;-71
2023/08/31 09:06:17;;;;;;;5.82;2.17;;;;;;;19.14;84.14;96563.03;5044690;28;20063;-69
2023/08/31 09:08:43;;;;;;;6.30;1.60;;;;;;;19.34;81.55;96574.16;5050373;28;20044;-70
2023/08/31 09:11:08;;;;;;;7.80;3.13;;;;;;;19.66;80.53;96576.25;5045156;28;20560;-70
2023/08/31 09:13:34;;;;;;;6.65;2.03;;;;;;;19.71;78.47;96575.75;5057111;28;20044;-72
2023/08/31 09:15:59;;;;;;;6.47;2.15;;;;;;;19.32;78.59;96588.47;5085383;28;20093;-71
2023/08/31 09:18:29;;;;;;;6.47;2.40;;;;;;;19.16;79.75;96594.75;5098577;28;20028;-68
2023/08/31 09:20:58;;;;;;;9.48;1.98;;;;;;;19.23;79.72;96589.03;5103145;28;20044;-69
2023/08/31 09:23:23;;;;;;;4.20;1.88;;;;;;;19.32;78.90;96587.69;5085783;28;20333;-71
2023/08/31 09:25:53;;;;;;;7.18;1.90;;;;;;;19.54;77.96;96583.25;5088202;28;20043;-70
2023/08/31 09:28:21;;;;;;;6.38;2.03;;;;;;;19.37;77.65;96585.19;5082561;28;20044;-71
2023/08/31 09:30:47;;;;;;;6.88;2.17;;;;;;;20.09;75.49;96588.44;5069440;28;20067;-69
2023/08/31 09:33:16;;;;;;;4.53;1.63;;;;;;;20.99;68.44;96587.84;5082048;28;20040;-72
2023/08/31 09:35:50;;;;;;;6.38;1.80;;;;;;;21.39;66.65;96586.72;5066241;28;20396;-73
2023/08/31 09:38:16;;;;;;;9.73;1.75;;;;;;;22.53;62.25;96599.25;5064901;28;20097;-73
2023/08/31 09:40:41;;;;;;;6.22;1.83;;;;;;;21.37;61.88;96587.19;5070866;28;20032;-73
2023/08/31 09:43:07;;;;;;;9.85;2.35;;;;;;;20.44;62.52;96587.59;5077908;28;20028;-73
2023/08/31 09:45:34;;;;;;;5.95;1.77;;;;;;;20.97;62.53;96589.47;5065833;28;20056;-72
2023/08/31 09:48:01;;;;;;;4.82;1.30;;;;;;;21.88;57.47;96597.69;5067617;28;20362;-73
2023/08/31 09:50:30;;;;;;;4.65;1.50;;;;;;;21.75;58.43;96605.22;5061018;28;20037;-73
2023/08/31 09:53:01;;;;;;;3.90;1.48;;;;;;;21.78;55.41;96607.16;5043391;28;20102;-72
2023/08/31 09:55:29;;;;;;;4.75;1.70;;;;;;;21.44;56.84;96600.13;5074181;28;20044;-71
2023/08/31 09:57:57;;;;;;;4.25;1.77;;;;;;;22.28;56.04;96604.88;5088438;28;20055;-72
2023/08/31 10:00:23;;;;;;;5.25;1.90;;;;;;;23.16;51.19;96616.34;5055728;28;20433;-72
2023/08/31 10:02:49;;;;;;;4.70;1.40;;;;;;;22.41;52.50;96607.66;5033586;28;20041;-72
2023/08/31 10:05:15;;;;;;;65.63;46.97;;;;;;;22.76;51.66;96614.09;5044968;28;20488;-72
2023/08/31 10:07:42;;;;;;;5.10;2.03;;;;;;;22.30;53.73;96605.97;5051139;28;20059;-71
2023/08/31 10:10:08;;;;;;;5.22;1.67;;;;;;;22.67;51.14;96611.19;5047748;28;20040;-71
2023/08/31 10:12:36;;;;;;;4.00;1.38;;;;;;;22.49;52.45;96601.41;5071568;28;20124;-73
2023/08/31 10:15:03;;;;;;;3.80;1.70;;;;;;;22.46;51.82;96602.28;5084630;28;20123;-72
2023/08/31 10:17:28;;;;;;;8.50;2.00;;;;;;;23.04;50.07;96606.75;5095547;28;20043;-72
2023/08/31 10:19:55;;;;;;;6.85;1.98;;;;;;;22.35;49.50;96590.69;5089596;28;20043;-71
2023/08/31 10:22:21;;;;;;;4.80;1.85;;;;;;;23.24;48.48;96602.88;5086828;28;20042;-71
2023/08/31 10:25:06;;;;;;;4.00;1.67;;;;;;;24.60;44.43;96606.16;5092825;28;20036;-71
2023/08/31 10:27:42;;;;;;;5.25;1.75;;;;;;;23.69;45.51;96600.88;5097248;28;20095;-71
2023/08/31 10:30:26;;;;;;;5.35;1.63;;;;;;;24.18;44.14;96601.00;5064666;28;20043;-72
2023/08/31 10:33:04;;;;;;;3.92;1.50;;;;;;;22.47;48.41;96591.91;5073051;28;20051;-71
2023/08/31 10:35:47;;;;;;;5.30;1.58;;;;;;;22.66;46.89;96595.69;5088924;28;20032;-70
2023/08/31 10:38:24;;;;;;;6.07;1.98;;;;;;;22.95;44.73;96594.72;5066590;28;20464;-72
2023/08/31 10:41:24;;;;;;;6.28;1.42;;;;;;;22.68;45.90;96593.97;5084367;28;20087;-71
2023/08/31 10:43:57;;;;;;;4.03;1.45;;;;;;;21.74;47.68;96595.31;5052169;28;20383;-70
2023/08/31 10:46:31;;;;;;;6.55;1.60;;;;;;;21.30;48.39;96592.97;5056874;28;20053;-72
2023/08/31 10:48:58;;;;;;;7.70;1.92;;;;;;;21.40;47.30;96596.66;5052706;28;20161;-69
2023/08/31 10:51:29;;;;;;;4.75;1.60;;;;;;;21.73;48.54;96593.75;5019488;28;20045;-70
2023/08/31 10:54:19;;;;;;;4.68;1.77;;;;;;;21.91;47.55;96596.00;5055372;28;20044;-71
2023/08/31 10:56:53;;;;;;;6.60;2.03;;;;;;;21.62;46.98;96593.28;5083970;28;20040;-70
2023/08/31 10:59:19;;;;;;;4.78;1.45;;;;;;;21.09;48.08;96599.13;5061220;28;20039;-70
2023/08/31 11:01:55;;;;;;;5.20;1.50;;;;;;;20.77;49.57;96590.38;5030005;28;20040;-70
2023/08/31 11:04:25;;;;;;;4.63;1.52;;;;;;;20.89;49.33;96583.31;5061885;28;20045;-70
2023/08/31 11:07:11;;;;;;;5.75;1.70;;;;;;;21.34;49.71;96585.28;5049042;28;20052;-70
2023/08/31 11:09:36;;;;;;;7.28;1.85;;;;;;;20.98;49.83;96583.47;5064462;28;20033;-71
2023/08/31 11:12:05;;;;;;;4.55;1.40;;;;;;;20.94;49.35;96579.22;5068323;28;20068;-70
2023/08/31 11:14:30;;;;;;;5.82;1.70;;;;;;;20.77;48.35;96590.38;5028474;28;20173;-71
2023/08/31 11:16:56;;;;;;;6.00;1.60;;;;;;;20.60;48.94;96591.59;5072802;28;20041;-71
2023/08/31 11:19:21;;;;;;;5.50;1.70;;;;;;;20.13;50.20;96589.94;5081956;28;20036;-70
2023/08/31 11:21:47;;;;;;;6.93;1.38;;;;;;;20.12;51.75;96593.16;5085450;28;20048;-71
2023/08/31 11:24:13;;;;;;;8.43;1.80;;;;;;;20.30;52.24;96579.59;5064718;28;20040;-70
2023/08/31 11:26:42;;;;;;;7.28;2.47;;;;;;;20.24;52.94;96592.47;5036640;28;20124;-71
2023/08/31 11:29:07;;;;;;;4.10;1.77;;;;;;;20.07;52.71;96582.53;5066700;28;20132;-71